sensor_id;sensor_type;location;lat;lon;timestamp;P1;durP1;ratioP1;P2;durP2;ratioP2
15876;SDS011;8037;51.666;7.834;2023-02-19T00:00:06;10.40;;;6.90;;
15876;SDS011;8037;51.666;7.834;2023-02-19T00:02:33;11.30;;;7.80;;
15876;SDS011;8037;51.666;7.834;2023-02-19T00:04:59;11.43;;;7.20;;
15876;SDS011;8037;51.666;7.834;2023-02-19T00:07:25;7.63;;;6.10;;
15876;SDS011;8037;51.666;7.834;2023-02-19T00:09:51;10.13;;;7.80;;
15876;SDS011;8037;51.666;7.834;2023-02-19T00:12:17;7.23;;;6.40;;
15876;SDS011;8037;51.666;7.834;2023-02-19T00:14:42;21.00;;;6.30;;
15876;SDS011;8037;51.666;7.834;2023-02-19T00:17:08;7.53;;;5.93;;
15876;SDS011;8037;51.666;7.834;2023-02-19T00:19:34;8.73;;;6.40;;
15876;SDS011;8037;51.666;7.834;2023-02-19T00:22:00;8.00;;;5.33;;
15876;SDS011;8037;51.666;7.834;2023-02-19T00:24:26;8.20;;;6.30;;
15876;SDS011;8037;51.666;7.834;2023-02-19T00:26:53;7.47;;;6.60;;
15876;SDS011;8037;51.666;7.834;2023-02-19T00:29:19;7.60;;;6.80;;
15876;SDS011;8037;51.666;7.834;2023-02-19T00:31:46;8.60;;;6.87;;
15876;SDS011;8037;51.666;7.834;2023-02-19T00:34:13;8.10;;;7.07;;
15876;SDS011;8037;51.666;7.834;2023-02-19T00:36:39;12.27;;;7.63;;
15876;SDS011;8037;51.666;7.834;2023-02-19T00:39:06;9.83;;;8.33;;
15876;SDS011;8037;51.666;7.834;2023-02-19T00:41:32;12.23;;;8.80;;
15876;SDS011;8037;51.666;7.834;2023-02-19T00:44:03;18.97;;;9.70;;
15876;SDS011;8037;51.666;7.834;2023-02-19T00:46:31;16.37;;;11.90;;
15876;SDS011;8037;51.666;7.834;2023-02-19T00:48:58;14.10;;;10.07;;
15876;SDS011;8037;51.666;7.834;2023-02-19T00:51:25;13.43;;;9.40;;
15876;SDS011;8037;51.666;7.834;2023-02-19T00:53:51;13.67;;;9.87;;
15876;SDS011;8037;51.666;7.834;2023-02-19T00:56:18;16.33;;;10.47;;
15876;SDS011;8037;51.666;7.834;2023-02-19T00:58:44;16.10;;;11.83;;
15876;SDS011;8037;51.666;7.834;2023-02-19T01:01:10;15.37;;;11.33;;
15876;SDS011;8037;51.666;7.834;2023-02-19T01:03:37;14.17;;;10.77;;
15876;SDS011;8037;51.666;7.834;2023-02-19T01:06:04;16.50;;;11.03;;
15876;SDS011;8037;51.666;7.834;2023-02-19T01:08:30;15.27;;;11.90;;
15876;SDS011;8037;51.666;7.834;2023-02-19T01:10:57;16.53;;;11.83;;
15876;SDS011;8037;51.666;7.834;2023-02-19T01:13:23;21.40;;;12.20;;
15876;SDS011;8037;51.666;7.834;2023-02-19T01:15:49;16.93;;;11.83;;
15876;SDS011;8037;51.666;7.834;2023-02-19T01:18:15;19.53;;;12.30;;
15876;SDS011;8037;51.666;7.834;2023-02-19T01:20:41;16.37;;;12.40;;
15876;SDS011;8037;51.666;7.834;2023-02-19T01:23:07;17.93;;;11.87;;
15876;SDS011;8037;51.666;7.834;2023-02-19T01:25:37;16.83;;;12.00;;
15876;SDS011;8037;51.666;7.834;2023-02-19T01:28:03;15.40;;;11.27;;
15876;SDS011;8037;51.666;7.834;2023-02-19T01:30:29;14.77;;;12.20;;
15876;SDS011;8037;51.666;7.834;2023-02-19T01:32:55;19.37;;;12.50;;
15876;SDS011;8037;51.666;7.834;2023-02-19T01:35:21;17.27;;;11.80;;
15876;SDS011;8037;51.666;7.834;2023-02-19T01:37:47;16.87;;;11.93;;
15876;SDS011;8037;51.666;7.834;2023-02-19T01:40:13;18.67;;;15.00;;
15876;SDS011;8037;51.666;7.834;2023-02-19T01:42:41;17.37;;;11.60;;
15876;SDS011;8037;51.666;7.834;2023-02-19T01:47:53;19.43;;;13.87;;
15876;SDS011;8037;51.666;7.834;2023-02-19T01:50:21;17.40;;;12.50;;
15876;SDS011;8037;51.666;7.834;2023-02-19T01:52:47;20.10;;;11.90;;
15876;SDS011;8037;51.666;7.834;2023-02-19T01:55:13;14.53;;;10.90;;
15876;SDS011;8037;51.666;7.834;2023-02-19T01:57:44;17.90;;;12.00;;
15876;SDS011;8037;51.666;7.834;2023-02-19T02:00:11;16.70;;;12.73;;
15876;SDS011;8037;51.666;7.834;2023-02-19T02:02:39;15.77;;;10.97;;
15876;SDS011;8037;51.666;7.834;2023-02-19T02:05:06;14.83;;;10.53;;
15876;SDS011;8037;51.666;7.834;2023-02-19T02:07:34;17.13;;;12.20;;
15876;SDS011;8037;51.666;7.834;2023-02-19T02:10:19;13.10;;;11.53;;
15876;SDS011;8037;51.666;7.834;2023-02-19T02:12:46;13.67;;;10.90;;
15876;SDS011;8037;51.666;7.834;2023-02-19T02:15:12;12.80;;;10.60;;
15876;SDS011;8037;51.666;7.834;2023-02-19T02:22:54;15.30;;;10.97;;
15876;SDS011;8037;51.666;7.834;2023-02-19T02:28:10;13.90;;;9.00;;
15876;SDS011;8037;51.666;7.834;2023-02-19T02:33:18;14.53;;;8.97;;
15876;SDS011;8037;51.666;7.834;2023-02-19T02:35:50;10.83;;;8.67;;
15876;SDS011;8037;51.666;7.834;2023-02-19T02:38:18;9.93;;;7.20;;
15876;SDS011;8037;51.666;7.834;2023-02-19T02:40:44;11.33;;;7.23;;
15876;SDS011;8037;51.666;7.834;2023-02-19T02:43:11;9.53;;;7.93;;
15876;SDS011;8037;51.666;7.834;2023-02-19T02:45:37;5.90;;;5.30;;
15876;SDS011;8037;51.666;7.834;2023-02-19T02:48:12;14.30;;;5.73;;
15876;SDS011;8037;51.666;7.834;2023-02-19T02:56:13;6.53;;;5.87;;
15876;SDS011;8037;51.666;7.834;2023-02-19T02:58:40;7.13;;;4.77;;
15876;SDS011;8037;51.666;7.834;2023-02-19T03:01:08;6.30;;;4.83;;
15876;SDS011;8037;51.666;7.834;2023-02-19T03:03:56;6.47;;;5.00;;
15876;SDS011;8037;51.666;7.834;2023-02-19T03:06:24;5.07;;;4.50;;
15876;SDS011;8037;51.666;7.834;2023-02-19T03:08:55;4.97;;;4.53;;
15876;SDS011;8037;51.666;7.834;2023-02-19T03:11:23;5.10;;;4.60;;
15876;SDS011;8037;51.666;7.834;2023-02-19T03:14:18;5.00;;;4.50;;
15876;SDS011;8037;51.666;7.834;2023-02-19T03:17:11;7.47;;;4.40;;
15876;SDS011;8037;51.666;7.834;2023-02-19T03:19:57;5.10;;;4.60;;
15876;SDS011;8037;51.666;7.834;2023-02-19T03:24:53;5.70;;;4.73;;
15876;SDS011;8037;51.666;7.834;2023-02-19T03:27:39;5.43;;;4.90;;
15876;SDS011;8037;51.666;7.834;2023-02-19T03:30:10;5.40;;;4.57;;
15876;SDS011;8037;51.666;7.834;2023-02-19T03:35:20;5.73;;;4.07;;
15876;SDS011;8037;51.666;7.834;2023-02-19T03:38:05;6.43;;;5.83;;
15876;SDS011;8037;51.666;7.834;2023-02-19T03:40:36;5.80;;;4.33;;
15876;SDS011;8037;51.666;7.834;2023-02-19T03:43:07;6.23;;;5.63;;
15876;SDS011;8037;51.666;7.834;2023-02-19T03:45:48;6.03;;;4.43;;
15876;SDS011;8037;51.666;7.834;2023-02-19T03:48:26;5.43;;;4.73;;
15876;SDS011;8037;51.666;7.834;2023-02-19T03:51:04;5.27;;;3.70;;
15876;SDS011;8037;51.666;7.834;2023-02-19T03:53:41;5.77;;;4.40;;
15876;SDS011;8037;51.666;7.834;2023-02-19T03:56:13;8.47;;;5.20;;
15876;SDS011;8037;51.666;7.834;2023-02-19T03:58:49;6.30;;;4.30;;
15876;SDS011;8037;51.666;7.834;2023-02-19T04:01:24;6.30;;;4.73;;
15876;SDS011;8037;51.666;7.834;2023-02-19T04:03:56;3.93;;;3.00;;
15876;SDS011;8037;51.666;7.834;2023-02-19T04:06:28;3.27;;;3.00;;
15876;SDS011;8037;51.666;7.834;2023-02-19T04:08:55;2.83;;;2.63;;
15876;SDS011;8037;51.666;7.834;2023-02-19T04:11:22;2.27;;;2.07;;
15876;SDS011;8037;51.666;7.834;2023-02-19T04:16:56;3.30;;;2.80;;
15876;SDS011;8037;51.666;7.834;2023-02-19T04:19:23;2.10;;;1.90;;
15876;SDS011;8037;51.666;7.834;2023-02-19T04:21:51;2.50;;;2.30;;
15876;SDS011;8037;51.666;7.834;2023-02-19T04:24:22;3.17;;;2.90;;
15876;SDS011;8037;51.666;7.834;2023-02-19T04:26:49;2.20;;;2.03;;
15876;SDS011;8037;51.666;7.834;2023-02-19T04:29:16;5.70;;;2.67;;
15876;SDS011;8037;51.666;7.834;2023-02-19T04:31:42;3.50;;;2.60;;
15876;SDS011;8037;51.666;7.834;2023-02-19T04:34:08;4.17;;;2.60;;
15876;SDS011;8037;51.666;7.834;2023-02-19T04:36:33;3.80;;;3.07;;
15876;SDS011;8037;51.666;7.834;2023-02-19T04:38:59;5.77;;;4.30;;
15876;SDS011;8037;51.666;7.834;2023-02-19T04:41:25;5.97;;;3.60;;
15876;SDS011;8037;51.666;7.834;2023-02-19T04:43:51;6.53;;;4.30;;
15876;SDS011;8037;51.666;7.834;2023-02-19T04:46:17;8.87;;;5.20;;
15876;SDS011;8037;51.666;7.834;2023-02-19T04:48:43;9.33;;;4.53;;
15876;SDS011;8037;51.666;7.834;2023-02-19T04:51:09;8.90;;;5.20;;
15876;SDS011;8037;51.666;7.834;2023-02-19T04:53:36;7.03;;;4.73;;
15876;SDS011;8037;51.666;7.834;2023-02-19T04:56:08;5.23;;;4.63;;
15876;SDS011;8037;51.666;7.834;2023-02-19T04:58:35;17.33;;;5.30;;
15876;SDS011;8037;51.666;7.834;2023-02-19T05:01:01;7.27;;;4.20;;
15876;SDS011;8037;51.666;7.834;2023-02-19T05:03:27;6.63;;;4.53;;
15876;SDS011;8037;51.666;7.834;2023-02-19T05:05:53;4.50;;;4.10;;
15876;SDS011;8037;51.666;7.834;2023-02-19T05:08:19;10.00;;;4.27;;
15876;SDS011;8037;51.666;7.834;2023-02-19T05:10:45;12.90;;;4.40;;
15876;SDS011;8037;51.666;7.834;2023-02-19T05:13:11;8.90;;;4.40;;
15876;SDS011;8037;51.666;7.834;2023-02-19T05:15:37;5.20;;;3.60;;
15876;SDS011;8037;51.666;7.834;2023-02-19T05:18:03;8.43;;;4.23;;
15876;SDS011;8037;51.666;7.834;2023-02-19T05:20:29;8.67;;;4.77;;
15876;SDS011;8037;51.666;7.834;2023-02-19T05:22:55;7.20;;;4.40;;
15876;SDS011;8037;51.666;7.834;2023-02-19T05:25:21;9.30;;;4.10;;
15876;SDS011;8037;51.666;7.834;2023-02-19T05:27:47;6.33;;;3.47;;
15876;SDS011;8037;51.666;7.834;2023-02-19T05:30:12;3.90;;;3.50;;
15876;SDS011;8037;51.666;7.834;2023-02-19T05:32:38;4.20;;;3.40;;
15876;SDS011;8037;51.666;7.834;2023-02-19T05:35:04;6.43;;;3.53;;
15876;SDS011;8037;51.666;7.834;2023-02-19T05:37:30;9.67;;;3.73;;
15876;SDS011;8037;51.666;7.834;2023-02-19T05:39:56;10.03;;;4.50;;
15876;SDS011;8037;51.666;7.834;2023-02-19T05:42:22;13.00;;;4.40;;
15876;SDS011;8037;51.666;7.834;2023-02-19T05:44:48;4.90;;;2.97;;
15876;SDS011;8037;51.666;7.834;2023-02-19T05:47:14;15.90;;;4.50;;
15876;SDS011;8037;51.666;7.834;2023-02-19T05:49:40;5.80;;;3.63;;
15876;SDS011;8037;51.666;7.834;2023-02-19T05:52:08;6.17;;;2.90;;
15876;SDS011;8037;51.666;7.834;2023-02-19T05:54:34;5.00;;;3.37;;
15876;SDS011;8037;51.666;7.834;2023-02-19T05:57:00;9.13;;;4.83;;
15876;SDS011;8037;51.666;7.834;2023-02-19T05:59:26;4.50;;;3.50;;
15876;SDS011;8037;51.666;7.834;2023-02-19T06:01:52;4.90;;;4.30;;
15876;SDS011;8037;51.666;7.834;2023-02-19T06:04:19;6.10;;;4.60;;
15876;SDS011;8037;51.666;7.834;2023-02-19T06:06:46;3.27;;;3.00;;
15876;SDS011;8037;51.666;7.834;2023-02-19T06:09:12;7.90;;;3.47;;
15876;SDS011;8037;51.666;7.834;2023-02-19T06:11:38;5.87;;;3.83;;
15876;SDS011;8037;51.666;7.834;2023-02-19T06:14:04;6.13;;;5.20;;
15876;SDS011;8037;51.666;7.834;2023-02-19T06:16:30;5.27;;;4.77;;
15876;SDS011;8037;51.666;7.834;2023-02-19T06:18:58;5.53;;;4.30;;
15876;SDS011;8037;51.666;7.834;2023-02-19T06:21:24;10.80;;;4.33;;
15876;SDS011;8037;51.666;7.834;2023-02-19T06:23:50;4.90;;;3.57;;
15876;SDS011;8037;51.666;7.834;2023-02-19T06:26:20;4.10;;;3.50;;
15876;SDS011;8037;51.666;7.834;2023-02-19T06:28:46;3.17;;;2.93;;
15876;SDS011;8037;51.666;7.834;2023-02-19T06:31:12;3.33;;;3.03;;
15876;SDS011;8037;51.666;7.834;2023-02-19T06:33:38;7.10;;;3.10;;
15876;SDS011;8037;51.666;7.834;2023-02-19T06:36:05;5.63;;;3.40;;
15876;SDS011;8037;51.666;7.834;2023-02-19T06:38:31;7.30;;;3.17;;
15876;SDS011;8037;51.666;7.834;2023-02-19T06:41:01;3.50;;;3.20;;
15876;SDS011;8037;51.666;7.834;2023-02-19T06:43:27;3.70;;;3.37;;
15876;SDS011;8037;51.666;7.834;2023-02-19T06:45:53;3.57;;;3.27;;
15876;SDS011;8037;51.666;7.834;2023-02-19T06:48:19;5.37;;;3.30;;
15876;SDS011;8037;51.666;7.834;2023-02-19T06:50:45;3.93;;;2.60;;
15876;SDS011;8037;51.666;7.834;2023-02-19T06:53:11;4.10;;;3.40;;
15876;SDS011;8037;51.666;7.834;2023-02-19T06:55:37;5.00;;;4.00;;
15876;SDS011;8037;51.666;7.834;2023-02-19T06:58:04;4.03;;;2.80;;
15876;SDS011;8037;51.666;7.834;2023-02-19T07:00:31;7.60;;;4.33;;
15876;SDS011;8037;51.666;7.834;2023-02-19T07:02:57;5.93;;;3.53;;
15876;SDS011;8037;51.666;7.834;2023-02-19T07:05:23;5.13;;;3.10;;
15876;SDS011;8037;51.666;7.834;2023-02-19T07:07:49;6.03;;;3.70;;
15876;SDS011;8037;51.666;7.834;2023-02-19T07:10:15;10.30;;;3.00;;
15876;SDS011;8037;51.666;7.834;2023-02-19T07:12:41;3.23;;;2.93;;
15876;SDS011;8037;51.666;7.834;2023-02-19T07:15:07;3.97;;;3.30;;
15876;SDS011;8037;51.666;7.834;2023-02-19T07:17:33;4.17;;;3.57;;
15876;SDS011;8037;51.666;7.834;2023-02-19T07:19:59;5.00;;;2.93;;
15876;SDS011;8037;51.666;7.834;2023-02-19T07:22:25;3.50;;;3.20;;
15876;SDS011;8037;51.666;7.834;2023-02-19T07:24:51;4.13;;;3.00;;
15876;SDS011;8037;51.666;7.834;2023-02-19T07:27:17;3.67;;;3.37;;
15876;SDS011;8037;51.666;7.834;2023-02-19T07:29:43;9.50;;;3.30;;
15876;SDS011;8037;51.666;7.834;2023-02-19T07:32:09;3.33;;;3.03;;
15876;SDS011;8037;51.666;7.834;2023-02-19T07:34:35;9.13;;;2.93;;
15876;SDS011;8037;51.666;7.834;2023-02-19T07:37:01;4.90;;;3.87;;
15876;SDS011;8037;51.666;7.834;2023-02-19T07:39:27;3.73;;;3.37;;
15876;SDS011;8037;51.666;7.834;2023-02-19T07:41:52;5.07;;;2.70;;
15876;SDS011;8037;51.666;7.834;2023-02-19T07:44:18;3.07;;;2.80;;
15876;SDS011;8037;51.666;7.834;2023-02-19T07:46:44;3.20;;;2.90;;
15876;SDS011;8037;51.666;7.834;2023-02-19T07:49:10;3.67;;;3.37;;
15876;SDS011;8037;51.666;7.834;2023-02-19T07:51:36;3.20;;;3.00;;
15876;SDS011;8037;51.666;7.834;2023-02-19T07:54:03;3.23;;;2.90;;
15876;SDS011;8037;51.666;7.834;2023-02-19T07:56:29;4.50;;;3.23;;
15876;SDS011;8037;51.666;7.834;2023-02-19T07:58:55;4.10;;;2.90;;
15876;SDS011;8037;51.666;7.834;2023-02-19T08:01:22;2.50;;;2.30;;
15876;SDS011;8037;51.666;7.834;2023-02-19T08:04:07;4.17;;;2.90;;
15876;SDS011;8037;51.666;7.834;2023-02-19T08:06:33;5.00;;;2.57;;
15876;SDS011;8037;51.666;7.834;2023-02-19T08:08:59;2.77;;;1.93;;
15876;SDS011;8037;51.666;7.834;2023-02-19T08:11:25;4.20;;;2.50;;
15876;SDS011;8037;51.666;7.834;2023-02-19T08:14:10;3.80;;;2.70;;
15876;SDS011;8037;51.666;7.834;2023-02-19T08:16:36;8.90;;;2.37;;
15876;SDS011;8037;51.666;7.834;2023-02-19T08:19:02;3.73;;;2.60;;
15876;SDS011;8037;51.666;7.834;2023-02-19T08:21:28;12.00;;;2.97;;
15876;SDS011;8037;51.666;7.834;2023-02-19T08:23:54;2.50;;;2.30;;
15876;SDS011;8037;51.666;7.834;2023-02-19T08:26:20;3.33;;;2.90;;
15876;SDS011;8037;51.666;7.834;2023-02-19T08:28:47;7.20;;;3.10;;
15876;SDS011;8037;51.666;7.834;2023-02-19T08:31:13;2.67;;;2.20;;
15876;SDS011;8037;51.666;7.834;2023-02-19T08:33:39;4.97;;;2.57;;
15876;SDS011;8037;51.666;7.834;2023-02-19T08:36:05;2.63;;;1.97;;
15876;SDS011;8037;51.666;7.834;2023-02-19T08:38:32;8.83;;;2.20;;
15876;SDS011;8037;51.666;7.834;2023-02-19T08:41:02;3.50;;;1.87;;
15876;SDS011;8037;51.666;7.834;2023-02-19T08:43:28;2.03;;;1.93;;
15876;SDS011;8037;51.666;7.834;2023-02-19T08:45:54;2.30;;;1.83;;
15876;SDS011;8037;51.666;7.834;2023-02-19T08:48:20;2.97;;;2.30;;
15876;SDS011;8037;51.666;7.834;2023-02-19T08:50:52;2.60;;;2.17;;
15876;SDS011;8037;51.666;7.834;2023-02-19T08:53:18;2.73;;;2.37;;
15876;SDS011;8037;51.666;7.834;2023-02-19T08:55:44;2.80;;;2.07;;
15876;SDS011;8037;51.666;7.834;2023-02-19T08:58:09;3.13;;;2.83;;
15876;SDS011;8037;51.666;7.834;2023-02-19T09:00:35;2.27;;;1.60;;
15876;SDS011;8037;51.666;7.834;2023-02-19T09:03:01;3.80;;;2.30;;
15876;SDS011;8037;51.666;7.834;2023-02-19T09:05:27;2.17;;;2.07;;
15876;SDS011;8037;51.666;7.834;2023-02-19T09:07:53;3.70;;;1.83;;
15876;SDS011;8037;51.666;7.834;2023-02-19T09:10:19;2.20;;;2.00;;
15876;SDS011;8037;51.666;7.834;2023-02-19T09:12:45;1.87;;;1.77;;
15876;SDS011;8037;51.666;7.834;2023-02-19T09:15:11;1.63;;;1.40;;
15876;SDS011;8037;51.666;7.834;2023-02-19T09:17:37;1.57;;;1.47;;
15876;SDS011;8037;51.666;7.834;2023-02-19T09:20:03;1.93;;;1.53;;
15876;SDS011;8037;51.666;7.834;2023-02-19T09:22:29;3.23;;;1.73;;
15876;SDS011;8037;51.666;7.834;2023-02-19T09:24:55;2.07;;;1.97;;
15876;SDS011;8037;51.666;7.834;2023-02-19T09:27:21;2.23;;;2.03;;
15876;SDS011;8037;51.666;7.834;2023-02-19T09:29:47;1.87;;;1.63;;
15876;SDS011;8037;51.666;7.834;2023-02-19T09:32:13;1.27;;;1.07;;
15876;SDS011;8037;51.666;7.834;2023-02-19T09:34:39;0.90;;;0.63;;
15876;SDS011;8037;51.666;7.834;2023-02-19T09:37:05;0.67;;;0.60;;
15876;SDS011;8037;51.666;7.834;2023-02-19T09:39:31;0.67;;;0.67;;
15876;SDS011;8037;51.666;7.834;2023-02-19T09:42:00;0.70;;;0.70;;
15876;SDS011;8037;51.666;7.834;2023-02-19T09:44:37;1.80;;;0.93;;
15876;SDS011;8037;51.666;7.834;2023-02-19T09:47:06;0.90;;;0.90;;
15876;SDS011;8037;51.666;7.834;2023-02-19T09:54:26;0.50;;;0.50;;
15876;SDS011;8037;51.666;7.834;2023-02-19T09:56:54;0.70;;;0.70;;
15876;SDS011;8037;51.666;7.834;2023-02-19T09:59:22;1.17;;;0.70;;
15876;SDS011;8037;51.666;7.834;2023-02-19T10:01:51;0.80;;;0.80;;
15876;SDS011;8037;51.666;7.834;2023-02-19T10:04:20;0.70;;;0.70;;
15876;SDS011;8037;51.666;7.834;2023-02-19T10:06:46;0.80;;;0.80;;
15876;SDS011;8037;51.666;7.834;2023-02-19T10:11:38;1.50;;;1.23;;
15876;SDS011;8037;51.666;7.834;2023-02-19T10:14:06;1.00;;;1.00;;
15876;SDS011;8037;51.666;7.834;2023-02-19T10:16:33;0.93;;;0.83;;
15876;SDS011;8037;51.666;7.834;2023-02-19T10:19:00;0.60;;;0.60;;
15876;SDS011;8037;51.666;7.834;2023-02-19T10:21:26;0.53;;;0.53;;
15876;SDS011;8037;51.666;7.834;2023-02-19T10:23:56;2.40;;;1.00;;
15876;SDS011;8037;51.666;7.834;2023-02-19T10:26:25;0.93;;;0.83;;
15876;SDS011;8037;51.666;7.834;2023-02-19T10:28:51;0.90;;;0.90;;
15876;SDS011;8037;51.666;7.834;2023-02-19T10:31:20;0.70;;;0.70;;
15876;SDS011;8037;51.666;7.834;2023-02-19T10:33:50;1.57;;;1.47;;
15876;SDS011;8037;51.666;7.834;2023-02-19T10:39:04;1.17;;;1.03;;
15876;SDS011;8037;51.666;7.834;2023-02-19T10:41:32;0.77;;;0.77;;
15876;SDS011;8037;51.666;7.834;2023-02-19T10:44:12;0.97;;;0.93;;
15876;SDS011;8037;51.666;7.834;2023-02-19T10:46:43;0.80;;;0.80;;
15876;SDS011;8037;51.666;7.834;2023-02-19T10:49:19;0.97;;;0.90;;
15876;SDS011;8037;51.666;7.834;2023-02-19T10:51:47;0.80;;;0.80;;
15876;SDS011;8037;51.666;7.834;2023-02-19T10:54:27;0.60;;;0.60;;
15876;SDS011;8037;51.666;7.834;2023-02-19T10:57:14;0.50;;;0.50;;
15876;SDS011;8037;51.666;7.834;2023-02-19T10:59:50;0.57;;;0.57;;
15876;SDS011;8037;51.666;7.834;2023-02-19T11:02:17;0.60;;;0.60;;
15876;SDS011;8037;51.666;7.834;2023-02-19T11:05:26;0.60;;;0.50;;
15876;SDS011;8037;51.666;7.834;2023-02-19T11:07:33;0.60;;;0.60;;
15876;SDS011;8037;51.666;7.834;2023-02-19T11:10:00;0.77;;;0.57;;
15876;SDS011;8037;51.666;7.834;2023-02-19T11:12:27;0.47;;;0.47;;
15876;SDS011;8037;51.666;7.834;2023-02-19T11:14:54;0.50;;;0.50;;
15876;SDS011;8037;51.666;7.834;2023-02-19T11:17:24;0.50;;;0.50;;
15876;SDS011;8037;51.666;7.834;2023-02-19T11:19:53;0.40;;;0.40;;
15876;SDS011;8037;51.666;7.834;2023-02-19T11:22:30;2.73;;;0.67;;
15876;SDS011;8037;51.666;7.834;2023-02-19T11:27:35;1.43;;;0.50;;
15876;SDS011;8037;51.666;7.834;2023-02-19T11:30:25;0.50;;;0.50;;
15876;SDS011;8037;51.666;7.834;2023-02-19T11:35:43;0.50;;;0.50;;
15876;SDS011;8037;51.666;7.834;2023-02-19T11:38:10;0.73;;;0.73;;
15876;SDS011;8037;51.666;7.834;2023-02-19T11:40:40;0.53;;;0.53;;
15876;SDS011;8037;51.666;7.834;2023-02-19T11:45:36;0.80;;;0.80;;
15876;SDS011;8037;51.666;7.834;2023-02-19T11:50:37;1.57;;;1.00;;
15876;SDS011;8037;51.666;7.834;2023-02-19T11:53:27;1.07;;;0.90;;
15876;SDS011;8037;51.666;7.834;2023-02-19T11:58:45;0.50;;;0.50;;
15876;SDS011;8037;51.666;7.834;2023-02-19T12:01:21;1.23;;;1.13;;
15876;SDS011;8037;51.666;7.834;2023-02-19T12:04:14;0.70;;;0.70;;
15876;SDS011;8037;51.666;7.834;2023-02-19T12:06:50;0.73;;;0.73;;
15876;SDS011;8037;51.666;7.834;2023-02-19T12:16:46;0.90;;;0.90;;
15876;SDS011;8037;51.666;7.834;2023-02-19T12:19:22;1.37;;;0.73;;
15876;SDS011;8037;51.666;7.834;2023-02-19T12:24:45;0.70;;;0.50;;
15876;SDS011;8037;51.666;7.834;2023-02-19T12:27:18;0.77;;;0.77;;
15876;SDS011;8037;51.666;7.834;2023-02-19T12:29:50;0.90;;;0.73;;
15876;SDS011;8037;51.666;7.834;2023-02-19T12:32:33;0.80;;;0.80;;
15876;SDS011;8037;51.666;7.834;2023-02-19T12:37:43;5.30;;;3.97;;
15876;SDS011;8037;51.666;7.834;2023-02-19T12:48:18;1.23;;;1.10;;
15876;SDS011;8037;51.666;7.834;2023-02-19T12:50:47;0.83;;;0.83;;
15876;SDS011;8037;51.666;7.834;2023-02-19T12:55:50;1.20;;;1.10;;
15876;SDS011;8037;51.666;7.834;2023-02-19T12:58:31;1.10;;;1.00;;
15876;SDS011;8037;51.666;7.834;2023-02-19T13:00:57;0.70;;;0.70;;
15876;SDS011;8037;51.666;7.834;2023-02-19T13:06:41;1.10;;;0.97;;
15876;SDS011;8037;51.666;7.834;2023-02-19T13:09:10;1.23;;;1.13;;
15876;SDS011;8037;51.666;7.834;2023-02-19T13:11:48;2.13;;;1.10;;
15876;SDS011;8037;51.666;7.834;2023-02-19T13:16:42;1.07;;;1.07;;
15876;SDS011;8037;51.666;7.834;2023-02-19T13:19:09;1.50;;;1.40;;
15876;SDS011;8037;51.666;7.834;2023-02-19T13:21:38;1.47;;;1.37;;
15876;SDS011;8037;51.666;7.834;2023-02-19T13:24:27;2.13;;;1.40;;
15876;SDS011;8037;51.666;7.834;2023-02-19T13:27:40;0.87;;;0.87;;
15876;SDS011;8037;51.666;7.834;2023-02-19T13:32:29;1.53;;;1.43;;
15876;SDS011;8037;51.666;7.834;2023-02-19T13:37:22;1.50;;;1.40;;
15876;SDS011;8037;51.666;7.834;2023-02-19T13:39:49;1.30;;;1.30;;
15876;SDS011;8037;51.666;7.834;2023-02-19T13:42:26;2.70;;;0.70;;
15876;SDS011;8037;51.666;7.834;2023-02-19T13:44:52;2.83;;;0.97;;
15876;SDS011;8037;51.666;7.834;2023-02-19T13:50:05;2.83;;;0.97;;
15876;SDS011;8037;51.666;7.834;2023-02-19T13:52:32;0.50;;;0.50;;
15876;SDS011;8037;51.666;7.834;2023-02-19T13:57:46;1.33;;;0.93;;
15876;SDS011;8037;51.666;7.834;2023-02-19T14:03:27;0.60;;;0.60;;
15876;SDS011;8037;51.666;7.834;2023-02-19T14:06:01;0.70;;;0.70;;
15876;SDS011;8037;51.666;7.834;2023-02-19T14:11:13;1.13;;;1.13;;
15876;SDS011;8037;51.666;7.834;2023-02-19T14:18:52;0.93;;;0.93;;
15876;SDS011;8037;51.666;7.834;2023-02-19T14:21:24;1.37;;;0.57;;
15876;SDS011;8037;51.666;7.834;2023-02-19T14:23:52;0.70;;;0.63;;
15876;SDS011;8037;51.666;7.834;2023-02-19T14:26:19;1.33;;;1.23;;
15876;SDS011;8037;51.666;7.834;2023-02-19T14:28:46;1.07;;;1.07;;
15876;SDS011;8037;51.666;7.834;2023-02-19T14:33:54;1.17;;;1.07;;
15876;SDS011;8037;51.666;7.834;2023-02-19T14:36:41;1.30;;;1.20;;
15876;SDS011;8037;51.666;7.834;2023-02-19T14:41:43;3.63;;;1.67;;
15876;SDS011;8037;51.666;7.834;2023-02-19T14:44:13;1.90;;;1.80;;
15876;SDS011;8037;51.666;7.834;2023-02-19T14:46:44;1.50;;;1.40;;
15876;SDS011;8037;51.666;7.834;2023-02-19T14:49:14;1.50;;;1.40;;
15876;SDS011;8037;51.666;7.834;2023-02-19T14:51:42;1.60;;;1.50;;
15876;SDS011;8037;51.666;7.834;2023-02-19T14:54:11;1.90;;;1.37;;
15876;SDS011;8037;51.666;7.834;2023-02-19T14:56:38;1.53;;;1.43;;
15876;SDS011;8037;51.666;7.834;2023-02-19T15:01:30;2.10;;;2.00;;
15876;SDS011;8037;51.666;7.834;2023-02-19T15:03:56;6.00;;;4.77;;
15876;SDS011;8037;51.666;7.834;2023-02-19T15:06:22;3.17;;;2.97;;
15876;SDS011;8037;51.666;7.834;2023-02-19T15:08:50;2.70;;;2.20;;
15876;SDS011;8037;51.666;7.834;2023-02-19T15:11:21;3.37;;;3.17;;
15876;SDS011;8037;51.666;7.834;2023-02-19T15:13:49;9.87;;;8.03;;
15876;SDS011;8037;51.666;7.834;2023-02-19T15:16:16;7.47;;;5.97;;
15876;SDS011;8037;51.666;7.834;2023-02-19T15:18:43;7.80;;;5.17;;
15876;SDS011;8037;51.666;7.834;2023-02-19T15:21:11;3.23;;;3.00;;
15876;SDS011;8037;51.666;7.834;2023-02-19T15:23:41;2.37;;;2.27;;
15876;SDS011;8037;51.666;7.834;2023-02-19T15:26:15;2.40;;;2.20;;
15876;SDS011;8037;51.666;7.834;2023-02-19T15:28:42;3.13;;;2.83;;
15876;SDS011;8037;51.666;7.834;2023-02-19T15:31:11;2.53;;;2.43;;
15876;SDS011;8037;51.666;7.834;2023-02-19T15:33:37;2.57;;;2.37;;
15876;SDS011;8037;51.666;7.834;2023-02-19T15:36:04;2.93;;;2.73;;
15876;SDS011;8037;51.666;7.834;2023-02-19T15:38:31;2.23;;;2.03;;
15876;SDS011;8037;51.666;7.834;2023-02-19T15:40:59;4.33;;;2.33;;
15876;SDS011;8037;51.666;7.834;2023-02-19T15:43:43;3.00;;;2.80;;
15876;SDS011;8037;51.666;7.834;2023-02-19T15:46:15;1.93;;;1.83;;
15876;SDS011;8037;51.666;7.834;2023-02-19T15:48:44;1.60;;;1.50;;
15876;SDS011;8037;51.666;7.834;2023-02-19T15:51:14;2.23;;;2.13;;
15876;SDS011;8037;51.666;7.834;2023-02-19T15:53:43;1.73;;;1.63;;
15876;SDS011;8037;51.666;7.834;2023-02-19T16:01:30;1.50;;;1.43;;
15876;SDS011;8037;51.666;7.834;2023-02-19T16:03:57;3.23;;;1.20;;
15876;SDS011;8037;51.666;7.834;2023-02-19T16:06:23;1.13;;;1.10;;
15876;SDS011;8037;51.666;7.834;2023-02-19T16:09:03;2.13;;;1.93;;
15876;SDS011;8037;51.666;7.834;2023-02-19T16:11:36;1.67;;;1.57;;
15876;SDS011;8037;51.666;7.834;2023-02-19T16:14:22;1.87;;;1.77;;
15876;SDS011;8037;51.666;7.834;2023-02-19T16:16:52;2.47;;;1.70;;
15876;SDS011;8037;51.666;7.834;2023-02-19T16:19:20;2.90;;;2.70;;
15876;SDS011;8037;51.666;7.834;2023-02-19T16:21:46;4.10;;;2.57;;
15876;SDS011;8037;51.666;7.834;2023-02-19T16:24:15;1.77;;;1.67;;
15876;SDS011;8037;51.666;7.834;2023-02-19T16:26:43;4.80;;;2.20;;
15876;SDS011;8037;51.666;7.834;2023-02-19T16:29:20;2.37;;;2.17;;
15876;SDS011;8037;51.666;7.834;2023-02-19T16:31:54;2.40;;;2.30;;
15876;SDS011;8037;51.666;7.834;2023-02-19T16:34:29;2.40;;;2.23;;
15876;SDS011;8037;51.666;7.834;2023-02-19T16:36:54;7.03;;;4.93;;
15876;SDS011;8037;51.666;7.834;2023-02-19T16:39:21;5.03;;;4.63;;
15876;SDS011;8037;51.666;7.834;2023-02-19T16:46:48;3.10;;;2.90;;
15876;SDS011;8037;51.666;7.834;2023-02-19T16:49:14;1.83;;;1.73;;
15876;SDS011;8037;51.666;7.834;2023-02-19T16:51:40;1.43;;;1.33;;
15876;SDS011;8037;51.666;7.834;2023-02-19T16:54:08;1.40;;;1.30;;
15876;SDS011;8037;51.666;7.834;2023-02-19T16:56:34;3.80;;;1.90;;
15876;SDS011;8037;51.666;7.834;2023-02-19T16:59:00;2.10;;;2.00;;
15876;SDS011;8037;51.666;7.834;2023-02-19T17:01:26;1.27;;;1.27;;
15876;SDS011;8037;51.666;7.834;2023-02-19T17:03:52;1.67;;;1.60;;
15876;SDS011;8037;51.666;7.834;2023-02-19T17:06:21;1.63;;;1.53;;